sensor_id;sensor_type;location;lat;lon;timestamp;pressure;altitude;pressure_sealevel;temperature;humidity
63347;BME280;49472;49.880;8.650;2023-03-02T00:01:21;100539.69;;;7.13;43.62
63347;BME280;49472;49.880;8.650;2023-03-02T00:03:47;100537.28;;;7.28;43.50
63347;BME280;49472;49.880;8.650;2023-03-02T00:06:13;100538.50;;;7.36;43.11
63347;BME280;49472;49.880;8.650;2023-03-02T00:08:39;100540.13;;;7.04;43.67
63347;BME280;49472;49.880;8.650;2023-03-02T00:11:05;100540.34;;;7.17;43.66
63347;BME280;49472;49.880;8.650;2023-03-02T00:13:31;100541.88;;;7.37;43.24
63347;BME280;49472;49.880;8.650;2023-03-02T00:15:58;100534.63;;;6.96;44.30
63347;BME280;49472;49.880;8.650;2023-03-02T00:18:23;100529.97;;;6.87;44.25
63347;BME280;49472;49.880;8.650;2023-03-02T00:20:48;100528.66;;;7.30;43.50
63347;BME280;49472;49.880;8.650;2023-03-02T00:23:14;100527.53;;;7.03;43.99
63347;BME280;49472;49.880;8.650;2023-03-02T00:25:39;100530.84;;;7.21;43.86
63347;BME280;49472;49.880;8.650;2023-03-02T00:28:05;100526.59;;;7.21;43.62
63347;BME280;49472;49.880;8.650;2023-03-02T00:30:30;100523.22;;;7.21;43.77
63347;BME280;49472;49.880;8.650;2023-03-02T00:32:55;100523.22;;;6.70;44.62
63347;BME280;49472;49.880;8.650;2023-03-02T00:35:22;100527.00;;;6.79;44.74
63347;BME280;49472;49.880;8.650;2023-03-02T00:37:48;100520.78;;;6.84;44.94
63347;BME280;49472;49.880;8.650;2023-03-02T00:40:13;100526.50;;;6.55;45.25
63347;BME280;49472;49.880;8.650;2023-03-02T00:42:39;100517.75;;;7.28;43.21
63347;BME280;49472;49.880;8.650;2023-03-02T00:45:07;100514.84;;;7.18;43.79
63347;BME280;49472;49.880;8.650;2023-03-02T00:47:34;100510.34;;;6.90;43.81
63347;BME280;49472;49.880;8.650;2023-03-02T00:50:00;100516.19;;;6.75;44.69
63347;BME280;49472;49.880;8.650;2023-03-02T00:52:26;100514.00;;;6.67;44.74
63347;BME280;49472;49.880;8.650;2023-03-02T00:54:51;100520.47;;;6.21;45.08
63347;BME280;49472;49.880;8.650;2023-03-02T00:57:16;100517.97;;;6.90;44.47
63347;BME280;49472;49.880;8.650;2023-03-02T00:59:41;100512.81;;;6.40;44.77
63347;BME280;49472;49.880;8.650;2023-03-02T01:02:07;100509.22;;;6.61;44.57
63347;BME280;49472;49.880;8.650;2023-03-02T01:04:36;100503.91;;;6.83;44.46
63347;BME280;49472;49.880;8.650;2023-03-02T01:07:14;100507.78;;;7.08;43.91
63347;BME280;49472;49.880;8.650;2023-03-02T01:09:41;100506.03;;;7.08;43.31
63347;BME280;49472;49.880;8.650;2023-03-02T01:12:08;100497.81;;;7.03;43.56
63347;BME280;49472;49.880;8.650;2023-03-02T01:14:36;100498.16;;;6.45;44.73
63347;BME280;49472;49.880;8.650;2023-03-02T01:17:03;100498.78;;;6.50;44.40
63347;BME280;49472;49.880;8.650;2023-03-02T01:19:29;100495.91;;;6.56;44.47
63347;BME280;49472;49.880;8.650;2023-03-02T01:21:54;100492.19;;;6.28;45.13
63347;BME280;49472;49.880;8.650;2023-03-02T01:24:19;100491.72;;;6.38;44.82
63347;BME280;49472;49.880;8.650;2023-03-02T01:26:44;100474.66;;;6.41;44.96
63347;BME280;49472;49.880;8.650;2023-03-02T01:29:10;100475.31;;;6.45;44.68
63347;BME280;49472;49.880;8.650;2023-03-02T01:31:35;100473.56;;;6.28;44.99
63347;BME280;49472;49.880;8.650;2023-03-02T01:34:01;100475.31;;;6.45;44.67
63347;BME280;49472;49.880;8.650;2023-03-02T01:36:26;100488.72;;;6.12;45.16
63347;BME280;49472;49.880;8.650;2023-03-02T01:38:51;100474.41;;;6.11;45.53
63347;BME280;49472;49.880;8.650;2023-03-02T01:41:18;100470.28;;;6.08;45.43
63347;BME280;49472;49.880;8.650;2023-03-02T01:43:43;100477.41;;;6.00;45.76
63347;BME280;49472;49.880;8.650;2023-03-02T01:46:17;100474.75;;;5.84;46.34
63347;BME280;49472;49.880;8.650;2023-03-02T01:49:06;100463.78;;;6.20;45.36
63347;BME280;49472;49.880;8.650;2023-03-02T01:51:31;100464.63;;;6.21;45.62
63347;BME280;49472;49.880;8.650;2023-03-02T01:54:01;100465.00;;;6.13;45.40
63347;BME280;49472;49.880;8.650;2023-03-02T01:56:32;100461.50;;;6.16;45.23
63347;BME280;49472;49.880;8.650;2023-03-02T01:59:02;100458.06;;;6.51;44.55
63347;BME280;49472;49.880;8.650;2023-03-02T02:01:31;100455.28;;;6.21;44.84
63347;BME280;49472;49.880;8.650;2023-03-02T02:03:58;100449.53;;;6.35;45.22
63347;BME280;49472;49.880;8.650;2023-03-02T02:06:36;100455.34;;;6.20;45.95
63347;BME280;49472;49.880;8.650;2023-03-02T02:09:04;100450.38;;;6.18;45.52
63347;BME280;49472;49.880;8.650;2023-03-02T02:11:32;100452.56;;;6.07;45.48
63347;BME280;49472;49.880;8.650;2023-03-02T02:13:59;100444.03;;;5.91;45.89
63347;BME280;49472;49.880;8.650;2023-03-02T02:16:26;100444.84;;;5.91;45.65
63347;BME280;49472;49.880;8.650;2023-03-02T02:18:53;100443.97;;;5.73;46.32
63347;BME280;49472;49.880;8.650;2023-03-02T02:21:21;100436.47;;;6.25;45.24
63347;BME280;49472;49.880;8.650;2023-03-02T02:26:25;100438.34;;;6.39;44.77
63347;BME280;49472;49.880;8.650;2023-03-02T02:28:57;100428.47;;;6.33;45.25
63347;BME280;49472;49.880;8.650;2023-03-02T02:33:58;100434.59;;;6.29;45.35
63347;BME280;49472;49.880;8.650;2023-03-02T02:36:28;100429.63;;;5.91;46.09
63347;BME280;49472;49.880;8.650;2023-03-02T02:39:00;100422.72;;;6.29;45.31
63347;BME280;49472;49.880;8.650;2023-03-02T02:41:30;100421.22;;;6.43;44.77
63347;BME280;49472;49.880;8.650;2023-03-02T02:43:57;100424.13;;;6.52;44.35
63347;BME280;49472;49.880;8.650;2023-03-02T02:46:23;100412.53;;;5.95;45.57
63347;BME280;49472;49.880;8.650;2023-03-02T02:48:49;100404.31;;;5.90;46.30
63347;BME280;49472;49.880;8.650;2023-03-02T02:51:22;100413.16;;;6.35;44.86
63347;BME280;49472;49.880;8.650;2023-03-02T02:54:01;100409.44;;;6.07;45.33
63347;BME280;49472;49.880;8.650;2023-03-02T02:56:29;100411.31;;;6.03;45.09
63347;BME280;49472;49.880;8.650;2023-03-02T02:59:00;100420.13;;;6.14;45.83
63347;BME280;49472;49.880;8.650;2023-03-02T03:01:27;100423.03;;;6.06;45.70
63347;BME280;49472;49.880;8.650;2023-03-02T03:03:55;100424.22;;;5.99;46.02
63347;BME280;49472;49.880;8.650;2023-03-02T03:06:24;100416.28;;;6.05;45.32
63347;BME280;49472;49.880;8.650;2023-03-02T03:08:57;100416.94;;;5.91;46.22
63347;BME280;49472;49.880;8.650;2023-03-02T03:11:27;100419.44;;;5.74;46.79
63347;BME280;49472;49.880;8.650;2023-03-02T03:13:57;100406.72;;;6.10;45.52
63347;BME280;49472;49.880;8.650;2023-03-02T03:16:27;100412.28;;;6.01;46.11
63347;BME280;49472;49.880;8.650;2023-03-02T03:18:53;100407.97;;;5.84;46.30
63347;BME280;49472;49.880;8.650;2023-03-02T03:21:19;100405.63;;;5.98;45.81
63347;BME280;49472;49.880;8.650;2023-03-02T03:23:45;100407.81;;;5.87;45.64
63347;BME280;49472;49.880;8.650;2023-03-02T03:26:10;100411.00;;;6.09;46.01
63347;BME280;49472;49.880;8.650;2023-03-02T03:28:36;100408.28;;;5.95;45.55
63347;BME280;49472;49.880;8.650;2023-03-02T03:31:01;100401.38;;;5.62;46.96
63347;BME280;49472;49.880;8.650;2023-03-02T03:33:26;100399.13;;;5.74;46.55
63347;BME280;49472;49.880;8.650;2023-03-02T03:35:52;100400.25;;;6.04;46.05
63347;BME280;49472;49.880;8.650;2023-03-02T03:38:17;100404.78;;;5.98;45.85
63347;BME280;49472;49.880;8.650;2023-03-02T03:40:43;100409.88;;;5.79;46.32
63347;BME280;49472;49.880;8.650;2023-03-02T03:43:08;100408.88;;;6.00;45.85
63347;BME280;49472;49.880;8.650;2023-03-02T03:45:34;100403.59;;;6.22;45.70
63347;BME280;49472;49.880;8.650;2023-03-02T03:48:00;100407.09;;;6.02;45.64
63347;BME280;49472;49.880;8.650;2023-03-02T03:50:25;100406.09;;;5.87;46.22
63347;BME280;49472;49.880;8.650;2023-03-02T03:52:51;100402.25;;;5.61;46.48
63347;BME280;49472;49.880;8.650;2023-03-02T03:55:16;100398.97;;;5.96;46.07
63347;BME280;49472;49.880;8.650;2023-03-02T03:57:42;100405.22;;;5.70;47.13
63347;BME280;49472;49.880;8.650;2023-03-02T04:00:11;100407.72;;;6.07;45.87
63347;BME280;49472;49.880;8.650;2023-03-02T04:02:40;100417.25;;;5.66;46.71
63347;BME280;49472;49.880;8.650;2023-03-02T04:05:06;100404.94;;;5.95;46.17
63347;BME280;49472;49.880;8.650;2023-03-02T04:07:33;100404.59;;;5.83;46.11
63347;BME280;49472;49.880;8.650;2023-03-02T04:09:58;100409.59;;;6.21;45.37
63347;BME280;49472;49.880;8.650;2023-03-02T04:12:29;100404.56;;;6.02;45.68
63347;BME280;49472;49.880;8.650;2023-03-02T04:14:54;100416.94;;;5.72;46.83
63347;BME280;49472;49.880;8.650;2023-03-02T04:17:20;100424.41;;;5.58;46.69
63347;BME280;49472;49.880;8.650;2023-03-02T04:19:45;100429.22;;;5.45;48.03
63347;BME280;49472;49.880;8.650;2023-03-02T04:22:10;100425.25;;;5.39;48.03
63347;BME280;49472;49.880;8.650;2023-03-02T04:24:35;100425.56;;;5.87;46.81
63347;BME280;49472;49.880;8.650;2023-03-02T04:27:01;100424.81;;;5.85;46.69
63347;BME280;49472;49.880;8.650;2023-03-02T04:29:27;100425.81;;;5.63;47.25
63347;BME280;49472;49.880;8.650;2023-03-02T04:31:52;100426.06;;;5.76;46.94
63347;BME280;49472;49.880;8.650;2023-03-02T04:34:17;100422.69;;;5.95;46.87
63347;BME280;49472;49.880;8.650;2023-03-02T04:36:43;100422.06;;;5.90;46.57
63347;BME280;49472;49.880;8.650;2023-03-02T04:39:09;100428.06;;;5.70;47.79
63347;BME280;49472;49.880;8.650;2023-03-02T04:41:35;100436.56;;;5.69;47.17
63347;BME280;49472;49.880;8.650;2023-03-02T04:44:00;100430.59;;;5.70;47.33
63347;BME280;49472;49.880;8.650;2023-03-02T04:46:26;100434.03;;;5.69;47.54
63347;BME280;49472;49.880;8.650;2023-03-02T04:48:52;100436.28;;;5.94;46.91
63347;BME280;49472;49.880;8.650;2023-03-02T04:51:21;100444.09;;;5.89;47.14
63347;BME280;49472;49.880;8.650;2023-03-02T04:53:52;100440.84;;;5.49;47.66
63347;BME280;49472;49.880;8.650;2023-03-02T04:56:18;100440.13;;;5.64;47.23
63347;BME280;49472;49.880;8.650;2023-03-02T04:58:44;100442.41;;;5.71;47.58
63347;BME280;49472;49.880;8.650;2023-03-02T05:01:10;100441.81;;;5.28;48.15
63347;BME280;49472;49.880;8.650;2023-03-02T05:03:36;100438.91;;;5.54;47.95
63347;BME280;49472;49.880;8.650;2023-03-02T05:06:01;100438.34;;;5.66;47.21
63347;BME280;49472;49.880;8.650;2023-03-02T05:08:31;100438.00;;;5.74;47.58
63347;BME280;49472;49.880;8.650;2023-03-02T05:10:56;100436.53;;;5.51;48.01
63347;BME280;49472;49.880;8.650;2023-03-02T05:13:23;100444.16;;;5.87;47.09
63347;BME280;49472;49.880;8.650;2023-03-02T05:15:49;100432.41;;;5.85;47.14
63347;BME280;49472;49.880;8.650;2023-03-02T05:18:16;100438.91;;;5.73;47.50
63347;BME280;49472;49.880;8.650;2023-03-02T05:20:42;100430.50;;;5.90;46.98
63347;BME280;49472;49.880;8.650;2023-03-02T05:23:09;100430.50;;;5.90;47.08
63347;BME280;49472;49.880;8.650;2023-03-02T05:25:36;100426.47;;;5.86;46.75
63347;BME280;49472;49.880;8.650;2023-03-02T05:28:02;100434.16;;;5.84;47.13
63347;BME280;49472;49.880;8.650;2023-03-02T05:30:27;100427.91;;;5.92;46.77
63347;BME280;49472;49.880;8.650;2023-03-02T05:32:53;100426.31;;;5.89;47.30
63347;BME280;49472;49.880;8.650;2023-03-02T05:35:20;100425.31;;;5.74;47.43
63347;BME280;49472;49.880;8.650;2023-03-02T05:37:45;100423.75;;;5.72;47.45
63347;BME280;49472;49.880;8.650;2023-03-02T05:40:13;100426.84;;;5.59;47.88
63347;BME280;49472;49.880;8.650;2023-03-02T05:42:40;100425.06;;;5.80;47.59
63347;BME280;49472;49.880;8.650;2023-03-02T05:45:07;100425.03;;;5.99;46.50
63347;BME280;49472;49.880;8.650;2023-03-02T05:47:33;100428.16;;;6.04;46.57
63347;BME280;49472;49.880;8.650;2023-03-02T05:49:58;100427.78;;;5.95;46.92
63347;BME280;49472;49.880;8.650;2023-03-02T05:52:24;100439.25;;;5.47;47.70
63347;BME280;49472;49.880;8.650;2023-03-02T05:54:50;100433.72;;;5.38;48.13
63347;BME280;49472;49.880;8.650;2023-03-02T05:57:15;100446.59;;;5.34;48.42
63347;BME280;49472;49.880;8.650;2023-03-02T05:59:41;100450.44;;;5.23;48.75
63347;BME280;49472;49.880;8.650;2023-03-02T06:02:06;100442.69;;;5.64;47.92
63347;BME280;49472;49.880;8.650;2023-03-02T06:04:32;100445.69;;;5.16;49.07
63347;BME280;49472;49.880;8.650;2023-03-02T06:06:57;100444.75;;;5.75;47.37
63347;BME280;49472;49.880;8.650;2023-03-02T06:09:22;100441.81;;;5.47;47.95
63347;BME280;49472;49.880;8.650;2023-03-02T06:11:47;100454.06;;;5.94;46.89
63347;BME280;49472;49.880;8.650;2023-03-02T06:14:13;100452.84;;;5.46;47.94
63347;BME280;49472;49.880;8.650;2023-03-02T06:16:39;100449.16;;;5.53;47.91
63347;BME280;49472;49.880;8.650;2023-03-02T06:19:04;100451.53;;;5.56;47.90
63347;BME280;49472;49.880;8.650;2023-03-02T06:21:30;100456.47;;;5.59;47.66
63347;BME280;49472;49.880;8.650;2023-03-02T06:23:55;100454.28;;;5.51;47.67
63347;BME280;49472;49.880;8.650;2023-03-02T06:26:20;100454.81;;;5.77;47.36
63347;BME280;49472;49.880;8.650;2023-03-02T06:28:46;100461.88;;;5.70;47.45
63347;BME280;49472;49.880;8.650;2023-03-02T06:31:11;100454.81;;;5.96;46.95
63347;BME280;49472;49.880;8.650;2023-03-02T06:33:36;100459.19;;;5.54;47.87
63347;BME280;49472;49.880;8.650;2023-03-02T06:36:02;100458.34;;;5.92;47.14
63347;BME280;49472;49.880;8.650;2023-03-02T06:38:27;100465.31;;;6.05;47.08
63347;BME280;49472;49.880;8.650;2023-03-02T06:40:53;100467.41;;;5.97;46.98
63347;BME280;49472;49.880;8.650;2023-03-02T06:43:18;100459.81;;;5.97;47.06
63347;BME280;49472;49.880;8.650;2023-03-02T06:45:43;100460.50;;;6.01;46.69
63347;BME280;49472;49.880;8.650;2023-03-02T06:48:09;100466.38;;;6.01;47.10
63347;BME280;49472;49.880;8.650;2023-03-02T06:50:34;100469.00;;;6.17;46.78
63347;BME280;49472;49.880;8.650;2023-03-02T06:52:59;100473.91;;;6.03;46.92
63347;BME280;49472;49.880;8.650;2023-03-02T06:55:25;100473.63;;;5.73;47.72
63347;BME280;49472;49.880;8.650;2023-03-02T06:57:50;100472.63;;;5.94;47.16
63347;BME280;49472;49.880;8.650;2023-03-02T07:00:16;100477.72;;;5.94;47.39
63347;BME280;49472;49.880;8.650;2023-03-02T07:02:49;100484.16;;;6.01;47.41
63347;BME280;49472;49.880;8.650;2023-03-02T07:05:14;100483.34;;;6.01;47.00
63347;BME280;49472;49.880;8.650;2023-03-02T07:07:40;100482.78;;;5.94;47.65
63347;BME280;49472;49.880;8.650;2023-03-02T07:10:06;100478.53;;;6.31;46.82
63347;BME280;49472;49.880;8.650;2023-03-02T07:12:31;100482.63;;;5.97;46.98
63347;BME280;49472;49.880;8.650;2023-03-02T07:14:57;100477.97;;;6.07;47.35
63347;BME280;49472;49.880;8.650;2023-03-02T07:17:22;100475.66;;;6.20;46.94
63347;BME280;49472;49.880;8.650;2023-03-02T07:19:47;100473.69;;;6.07;46.99
63347;BME280;49472;49.880;8.650;2023-03-02T07:22:13;100475.50;;;6.23;46.77
63347;BME280;49472;49.880;8.650;2023-03-02T07:24:38;100473.63;;;6.09;47.34
63347;BME280;49472;49.880;8.650;2023-03-02T07:27:03;100471.84;;;6.46;46.55
63347;BME280;49472;49.880;8.650;2023-03-02T07:29:29;100477.91;;;6.61;46.19
63347;BME280;49472;49.880;8.650;2023-03-02T07:31:54;100475.69;;;6.72;45.93
63347;BME280;49472;49.880;8.650;2023-03-02T07:34:24;100463.50;;;6.94;45.68
63347;BME280;49472;49.880;8.650;2023-03-02T07:36:49;100468.13;;;6.70;45.82
63347;BME280;49472;49.880;8.650;2023-03-02T07:39:15;100473.44;;;6.66;46.13
63347;BME280;49472;49.880;8.650;2023-03-02T07:41:40;100468.69;;;6.93;45.32
63347;BME280;49472;49.880;8.650;2023-03-02T07:44:05;100470.16;;;6.97;45.33
63347;BME280;49472;49.880;8.650;2023-03-02T07:46:31;100468.41;;;6.82;45.59
63347;BME280;49472;49.880;8.650;2023-03-02T07:48:56;100462.06;;;7.06;45.51
63347;BME280;49472;49.880;8.650;2023-03-02T07:51:23;100464.34;;;6.95;45.54
63347;BME280;49472;49.880;8.650;2023-03-02T07:53:48;100466.53;;;7.18;45.29
63347;BME280;49472;49.880;8.650;2023-03-02T07:56:14;100466.25;;;7.41;45.06
63347;BME280;49472;49.880;8.650;2023-03-02T07:58:39;100462.34;;;7.17;44.85
63347;BME280;49472;49.880;8.650;2023-03-02T08:01:04;100467.63;;;7.30;45.06
63347;BME280;49472;49.880;8.650;2023-03-02T08:03:30;100460.88;;;6.80;45.99
63347;BME280;49472;49.880;8.650;2023-03-02T08:05:55;100463.53;;;7.28;45.40
63347;BME280;49472;49.880;8.650;2023-03-02T08:08:20;100466.00;;;7.61;44.74
63347;BME280;49472;49.880;8.650;2023-03-02T08:10:46;100468.59;;;7.28;45.32
63347;BME280;49472;49.880;8.650;2023-03-02T08:13:11;100464.91;;;7.49;45.54
63347;BME280;49472;49.880;8.650;2023-03-02T08:15:36;100464.81;;;7.82;44.54
63347;BME280;49472;49.880;8.650;2023-03-02T08:18:02;100467.97;;;7.72;45.12
63347;BME280;49472;49.880;8.650;2023-03-02T08:20:27;100467.38;;;7.82;44.68
63347;BME280;49472;49.880;8.650;2023-03-02T08:22:53;100461.72;;;8.23;43.86
63347;BME280;49472;49.880;8.650;2023-03-02T08:25:18;100464.38;;;8.06;43.91
63347;BME280;49472;49.880;8.650;2023-03-02T08:27:44;100462.09;;;8.32;43.76
63347;BME280;49472;49.880;8.650;2023-03-02T08:30:11;100463.25;;;8.42;43.93
63347;BME280;49472;49.880;8.650;2023-03-02T08:32:37;100455.75;;;8.39;43.90
63347;BME280;49472;49.880;8.650;2023-03-02T08:35:03;100457.63;;;8.51;43.63
63347;BME280;49472;49.880;8.650;2023-03-02T08:37:28;100462.94;;;8.77;43.35
63347;BME280;49472;49.880;8.650;2023-03-02T08:39:54;100454.44;;;8.62;43.41
63347;BME280;49472;49.880;8.650;2023-03-02T08:42:19;100457.69;;;8.94;43.17
63347;BME280;49472;49.880;8.650;2023-03-02T08:44:44;100454.22;;;8.81;43.01
63347;BME280;49472;49.880;8.650;2023-03-02T08:47:10;100449.75;;;8.99;42.76
63347;BME280;49472;49.880;8.650;2023-03-02T08:49:35;100444.47;;;9.02;43.03
63347;BME280;49472;49.880;8.650;2023-03-02T08:52:02;100439.44;;;9.15;42.72
63347;BME280;49472;49.880;8.650;2023-03-02T08:54:28;100442.69;;;9.31;42.75
63347;BME280;49472;49.880;8.650;2023-03-02T08:56:53;100449.06;;;9.38;42.14
63347;BME280;49472;49.880;8.650;2023-03-02T08:59:18;100439.63;;;9.67;41.99
63347;BME280;49472;49.880;8.650;2023-03-02T09:01:45;100440.22;;;9.71;41.57
63347;BME280;49472;49.880;8.650;2023-03-02T09:04:11;100440.03;;;9.74;41.85
63347;BME280;49472;49.880;8.650;2023-03-02T09:06:39;100440.28;;;9.56;42.36
63347;BME280;49472;49.880;8.650;2023-03-02T09:09:06;100442.19;;;9.67;42.27
63347;BME280;49472;49.880;8.650;2023-03-02T09:11:32;100436.38;;;10.05;41.84
63347;BME280;49472;49.880;8.650;2023-03-02T09:13:57;100435.44;;;10.06;41.20
63347;BME280;49472;49.880;8.650;2023-03-02T09:16:23;100429.03;;;10.26;41.01
63347;BME280;49472;49.880;8.650;2023-03-02T09:18:50;100433.22;;;10.27;41.21
63347;BME280;49472;49.880;8.650;2023-03-02T09:21:16;100424.84;;;10.25;41.00
63347;BME280;49472;49.880;8.650;2023-03-02T09:23:41;100427.56;;;10.49;41.20
63347;BME280;49472;49.880;8.650;2023-03-02T09:26:07;100427.16;;;10.68;40.53
63347;BME280;49472;49.880;8.650;2023-03-02T09:28:32;100420.19;;;10.83;40.49
63347;BME280;49472;49.880;8.650;2023-03-02T09:31:00;100419.56;;;10.92;40.25
63347;BME280;49472;49.880;8.650;2023-03-02T09:33:26;100428.91;;;11.30;39.75
63347;BME280;49472;49.880;8.650;2023-03-02T09:35:51;100421.41;;;11.40;39.50
63347;BME280;49472;49.880;8.650;2023-03-02T09:38:17;100421.28;;;11.41;39.58
63347;BME280;49472;49.880;8.650;2023-03-02T09:41:01;100415.25;;;11.42;39.88
63347;BME280;49472;49.880;8.650;2023-03-02T09:46:41;100416.22;;;11.77;39.40
63347;BME280;49472;49.880;8.650;2023-03-02T09:52:34;100414.13;;;11.94;38.85
63347;BME280;49472;49.880;8.650;2023-03-02T09:55:25;100416.44;;;11.98;38.80
63347;BME280;49472;49.880;8.650;2023-03-02T09:57:52;100415.66;;;11.73;39.06
63347;BME280;49472;49.880;8.650;2023-03-02T10:00:27;100417.13;;;11.88;38.66
63347;BME280;49472;49.880;8.650;2023-03-02T10:02:57;100420.84;;;12.31;38.54
63347;BME280;49472;49.880;8.650;2023-03-02T10:05:38;100415.19;;;12.50;38.26
63347;BME280;49472;49.880;8.650;2023-03-02T10:08:04;100419.84;;;12.45;37.80
63347;BME280;49472;49.880;8.650;2023-03-02T10:16:29;100418.09;;;13.01;37.25
63347;BME280;49472;49.880;8.650;2023-03-02T10:19:21;100418.56;;;13.18;37.17
63347;BME280;49472;49.880;8.650;2023-03-02T10:22:15;100411.09;;;13.03;37.46
63347;BME280;49472;49.880;8.650;2023-03-02T10:27:41;100410.88;;;12.73;37.82
63347;BME280;49472;49.880;8.650;2023-03-02T10:32:42;100403.25;;;13.05;37.13
63347;BME280;49472;49.880;8.650;2023-03-02T10:35:15;100397.19;;;13.72;36.97
63347;BME280;49472;49.880;8.650;2023-03-02T10:37:41;100397.31;;;13.38;36.95
63347;BME280;49472;49.880;8.650;2023-03-02T10:40:41;100390.03;;;13.76;36.66
63347;BME280;49472;49.880;8.650;2023-03-02T10:43:13;100392.81;;;14.05;36.10
63347;BME280;49472;49.880;8.650;2023-03-02T10:45:38;100392.81;;;14.26;36.07
63347;BME280;49472;49.880;8.650;2023-03-02T10:48:06;100378.13;;;14.17;36.12
63347;BME280;49472;49.880;8.650;2023-03-02T10:50:33;100384.06;;;14.38;35.79
63347;BME280;49472;49.880;8.650;2023-03-02T10:52:59;100386.44;;;14.51;35.64
63347;BME280;49472;49.880;8.650;2023-03-02T10:55:25;100384.28;;;14.87;35.79
63347;BME280;49472;49.880;8.650;2023-03-02T10:58:05;100375.34;;;14.81;35.32
63347;BME280;49472;49.880;8.650;2023-03-02T11:00:33;100375.66;;;14.57;35.64
63347;BME280;49472;49.880;8.650;2023-03-02T11:03:16;100375.50;;;14.28;35.92
63347;BME280;49472;49.880;8.650;2023-03-02T11:05:43;100374.84;;;14.57;35.72
63347;BME280;49472;49.880;8.650;2023-03-02T11:08:16;100356.44;;;15.11;34.87
63347;BME280;49472;49.880;8.650;2023-03-02T11:11:02;100346.94;;;15.12;34.76
63347;BME280;49472;49.880;8.650;2023-03-02T11:13:35;100351.66;;;14.26;36.37
63347;BME280;49472;49.880;8.650;2023-03-02T11:16:22;100353.50;;;13.93;35.83
63347;BME280;49472;49.880;8.650;2023-03-02T11:19:00;100359.63;;;13.60;37.36
63347;BME280;49472;49.880;8.650;2023-03-02T11:21:40;100364.28;;;14.08;36.68
63347;BME280;49472;49.880;8.650;2023-03-02T11:26:37;100349.56;;;14.41;35.84
63347;BME280;49472;49.880;8.650;2023-03-02T11:29:09;100357.53;;;14.38;36.12
63347;BME280;49472;49.880;8.650;2023-03-02T11:32:10;100349.09;;;14.57;35.52
63347;BME280;49472;49.880;8.650;2023-03-02T11:34:57;100347.03;;;14.81;35.45
63347;BME280;49472;49.880;8.650;2023-03-02T11:37:35;100345.72;;;15.64;34.83
63347;BME280;49472;49.880;8.650;2023-03-02T11:40:32;100340.06;;;16.65;33.50
63347;BME280;49472;49.880;8.650;2023-03-02T11:43:00;100336.22;;;17.32;32.56
63347;BME280;49472;49.880;8.650;2023-03-02T11:45:32;100335.09;;;16.81;32.64
63347;BME280;49472;49.880;8.650;2023-03-02T11:48:11;100324.59;;;17.90;31.83
63347;BME280;49472;49.880;8.650;2023-03-02T11:51:04;100317.81;;;18.66;30.93
63347;BME280;49472;49.880;8.650;2023-03-02T11:53:42;100320.97;;;18.78;30.63
63347;BME280;49472;49.880;8.650;2023-03-02T11:56:10;100308.72;;;19.29;30.26
63347;BME280;49472;49.880;8.650;2023-03-02T11:58:36;100309.69;;;19.77;29.48
63347;BME280;49472;49.880;8.650;2023-03-02T12:01:02;100303.34;;;19.88;29.37
63347;BME280;49472;49.880;8.650;2023-03-02T12:13:40;100287.16;;;21.72;27.38
63347;BME280;49472;49.880;8.650;2023-03-02T12:16:21;100294.78;;;21.73;27.04
63347;BME280;49472;49.880;8.650;2023-03-02T12:18:51;100293.38;;;20.87;27.95
63347;BME280;49472;49.880;8.650;2023-03-02T12:21:20;100288.22;;;21.92;26.95
63347;BME280;49472;49.880;8.650;2023-03-02T12:31:46;100275.75;;;23.61;25.88
63347;BME280;49472;49.880;8.650;2023-03-02T12:36:53;100268.38;;;22.21;26.30
63347;BME280;49472;49.880;8.650;2023-03-02T12:44:57;100258.34;;;24.91;24.80
63347;BME280;49472;49.880;8.650;2023-03-02T12:47:28;100258.31;;;24.71;23.80
63347;BME280;49472;49.880;8.650;2023-03-02T12:50:01;100256.13;;;25.15;24.62
63347;BME280;49472;49.880;8.650;2023-03-02T12:52:31;100247.75;;;25.97;23.95
63347;BME280;49472;49.880;8.650;2023-03-02T12:55:00;100256.47;;;26.30;23.53
63347;BME280;49472;49.880;8.650;2023-03-02T12:57:26;100243.81;;;26.90;23.09
63347;BME280;49472;49.880;8.650;2023-03-02T12:59:57;100238.59;;;26.83;22.77
63347;BME280;49472;49.880;8.650;2023-03-02T13:02:26;100230.41;;;26.73;23.20
63347;BME280;49472;49.880;8.650;2023-03-02T13:05:04;100233.50;;;26.89;23.01
63347;BME280;49472;49.880;8.650;2023-03-02T13:07:36;100235.94;;;26.20;23.50
63347;BME280;49472;49.880;8.650;2023-03-02T13:10:35;100224.72;;;27.26;22.34
63347;BME280;49472;49.880;8.650;2023-03-02T13:13:12;100230.53;;;26.85;22.45
63347;BME280;49472;49.880;8.650;2023-03-02T13:15:49;100229.72;;;27.53;21.88
63347;BME280;49472;49.880;8.650;2023-03-02T13:18:15;100218.09;;;28.58;22.53
63347;BME280;49472;49.880;8.650;2023-03-02T13:20:41;100219.28;;;27.28;22.74
63347;BME280;49472;49.880;8.650;2023-03-02T13:23:14;100212.19;;;27.47;22.34
63347;BME280;49472;49.880;8.650;2023-03-02T13:26:00;100215.69;;;27.78;21.72
63347;BME280;49472;49.880;8.650;2023-03-02T13:28:36;100204.34;;;28.56;21.10
63347;BME280;49472;49.880;8.650;2023-03-02T13:31:22;100208.47;;;28.64;20.78
63347;BME280;49472;49.880;8.650;2023-03-02T13:33:49;100203.38;;;29.16;21.20
63347;BME280;49472;49.880;8.650;2023-03-02T13:36:18;100207.59;;;28.82;21.57
63347;BME280;49472;49.880;8.650;2023-03-02T13:38:48;100198.78;;;28.76;20.96
63347;BME280;49472;49.880;8.650;2023-03-02T13:41:21;100196.41;;;29.10;20.86
63347;BME280;49472;49.880;8.650;2023-03-02T13:43:47;100191.28;;;28.49;22.34
63347;BME280;49472;49.880;8.650;2023-03-02T13:48:52;100182.69;;;28.00;22.16
63347;BME280;49472;49.880;8.650;2023-03-02T13:51:18;100185.25;;;28.61;21.06
63347;BME280;49472;49.880;8.650;2023-03-02T13:53:52;100179.06;;;29.37;20.95
63347;BME280;49472;49.880;8.650;2023-03-02T13:56:25;100175.94;;;30.55;19.92
63347;BME280;49472;49.880;8.650;2023-03-02T13:58:52;100174.19;;;30.61;20.07